»·PEaware :: BADGR13 KMFR-KEUG

BADGR13 :: KMFR-KEUG

FLIGHT INFORMATION

Flight Status: Arrived
Operator: Unknown
More flights by this operator :: More flights under this callsign
Pilot: Abraham G. (22221)
Aircraft: BEECH AIRCRAFT T-6A TEXAN
(TEX2)
More flights by this aircraft type
Origin: KMFR Rogue Valley Intl-Medford
United States
Destination: KEUG Mahlon Sweet
United States
More flights between these airports :: More routes between these airports
Route: +BRUTE7 UZEHE V23 EUG
File this flight plan on PilotEdge
Remarks: No SID, No STAR
Altitude:
(Current/Filed)
10,000ft
Speed:
(Current/Filed)
250kts
Departed: 17-Jun-20 10:26 AM
Arrived: 17-Jun-20 11:08 AM
Distance/Time
Traveled:
106nm/0:42
Distance/Time
To Go:
Arrived

Flight Plot

Page will automatically refresh every two minutes.

Flight plan parsing failed; only flown route is shown


Map Options




Map Legend


Flown Route
Filed Route
Departure Airport
Arrival Airport
Navaid (VOR, NDB)
Fix

Horizontal Profiles

Position Reports

Time Latitude Longitude Heading Altitude Ground
Speed
17-Jun-20 10:08 42.380419 -122.878976 68 1303ft 0kts
17-Jun-20 10:09 42.380419 -122.878976 68 1303ft 0kts
17-Jun-20 10:10 42.380419 -122.878976 68 1303ft 0kts
17-Jun-20 10:11 42.380419 -122.878976 68 1303ft 0kts
17-Jun-20 10:12 42.380419 -122.878976 68 1303ft 0kts
17-Jun-20 10:13 42.380419 -122.878976 68 1303ft 0kts
17-Jun-20 10:14 42.380419 -122.878976 68 1303ft 0kts
17-Jun-20 10:15 42.380419 -122.878976 68 1303ft 0kts
17-Jun-20 10:16 42.380419 -122.878976 68 1303ft 0kts
17-Jun-20 10:17 42.380419 -122.878976 68 1303ft 0kts
17-Jun-20 10:18 42.380419 -122.878976 68 1303ft 0kts
17-Jun-20 10:19 42.380419 -122.878976 68 1303ft 0kts
17-Jun-20 10:20 42.380419 -122.878976 68 1303ft 0kts
17-Jun-20 10:21 42.380726 -122.878794 340 1303ft 5kts
17-Jun-20 10:22 42.384297 -122.879784 336 1298ft 23kts
17-Jun-20 10:23 42.385776 -122.880193 46 1296ft 0kts
17-Jun-20 10:24 42.385789 -122.880175 46 1296ft 0kts
17-Jun-20 10:25 42.373302 -122.872537 168 1743ft 134kts
17-Jun-20 10:26 42.372009 -122.887698 44 4682ft 183kts
17-Jun-20 10:27 42.382493 -122.817973 80 7617ft 205kts
17-Jun-20 10:28 42.396074 -122.740784 78 9758ft 233kts
17-Jun-20 10:29 42.387212 -122.646649 114 9664ft 261kts
17-Jun-20 10:30 42.395167 -122.588242 0 9483ft 236kts
17-Jun-20 10:31 42.462587 -122.577464 4 9583ft 251kts
17-Jun-20 10:32 42.532261 -122.581985 5 9755ft 254kts
17-Jun-20 10:33 42.596394 -122.620474 335 9823ft 255kts
17-Jun-20 10:34 42.654786 -122.676740 305 9742ft 265kts
17-Jun-20 10:35 42.699766 -122.756109 307 9753ft 273kts
17-Jun-20 10:36 42.718308 -122.856506 280 9661ft 273kts
17-Jun-20 10:37 42.750694 -122.943743 334 9660ft 269kts
17-Jun-20 10:38 42.822199 -122.974061 345 9833ft 274kts
17-Jun-20 10:39 42.900222 -122.990299 350 9541ft 285kts
17-Jun-20 10:40 42.975968 -123.010183 348 9837ft 269kts
17-Jun-20 10:41 43.049843 -123.031236 347 10074ft 273kts
17-Jun-20 10:42 43.124804 -123.053073 347 10045ft 279kts
17-Jun-20 10:43 43.199982 -123.077516 347 10059ft 278kts
17-Jun-20 10:44 43.275697 -123.099745 347 10039ft 278kts
17-Jun-20 10:45 43.351517 -123.122388 348 9871ft 282kts
17-Jun-20 10:46 43.428555 -123.139363 352 9697ft 281kts
17-Jun-20 10:47 43.505944 -123.154819 354 9649ft 277kts
17-Jun-20 10:48 43.582793 -123.163577 358 9589ft 279kts
17-Jun-20 10:49 43.661388 -123.165321 4 8552ft 289kts
17-Jun-20 10:50 43.736835 -123.157322 2 6324ft 268kts
17-Jun-20 10:51 43.805118 -123.147701 4 5627ft 231kts
17-Jun-20 10:52 43.870709 -123.136625 3 5594ft 244kts
17-Jun-20 10:53 43.938186 -123.126079 5 5753ft 241kts
17-Jun-20 10:54 44.007575 -123.115170 4 5665ft 245kts
17-Jun-20 10:55 44.078409 -123.104629 4 5623ft 245kts
17-Jun-20 10:56 44.148481 -123.094103 2 5631ft 243kts
17-Jun-20 10:57 44.218552 -123.086683 1 5617ft 243kts
17-Jun-20 10:58 44.288418 -123.076729 4 3904ft 250kts
17-Jun-20 10:59 44.335540 -123.109074 283 3501ft 188kts
17-Jun-20 11:00 44.339360 -123.183294 236 1609ft 178kts
17-Jun-20 11:01 44.298042 -123.214154 204 1658ft 174kts
17-Jun-20 11:02 44.257499 -123.221295 181 1505ft 112kts
17-Jun-20 11:03 44.224025 -123.220195 180 1651ft 118kts
17-Jun-20 11:04 44.190906 -123.219725 181 1387ft 113kts
17-Jun-20 11:05 44.160131 -123.219497 180 899ft 112kts
17-Jun-20 11:06 44.130646 -123.219064 180 359ft 81kts
17-Jun-20 11:07 44.120899 -123.217285 109 365ft 13kts
17-Jun-20 11:08 44.117882 -123.215262 210 368ft 0kts
17-Jun-20 11:09 44.117882 -123.215262 210 368ft 0kts
17-Jun-20 11:10 44.117882 -123.215262 210 368ft 0kts

Navigation Log

Ident Type
Flight plan parsing failed, navigation log unavailable